KQFV

Sachang

Sachang, South Korea
METAR KQFV 191640Z AUTO 28003KT 3200 HZ FEW027 BKN034 M00/M03 A3004 RMK A02 TSNO
Observed Flight Rules
Jan-19 @ 16:40 UTC (22 minutes ago) Instrument Flight Rules
Wind Visibility Clouds Conditions
280° at 3 knots 3,203 meters
  • Few at 2,700' AGL
  • Broken at 3,400' AGL
  • Haze
Temperatures Readings
Current 0°C / 32°F
Dewpoint -3°C / 27°F
Humidity 80%
Altimeter 30.04" Hg
Pressure 1017.32 hPa
METAR KQFV 191640Z AUTO 28003KT 3200 HZ FEW027 BKN034 M00/M03 A3004 RMK A02 TSNO
Observed Flight Rules
Jan-19 @ 16:40 UTC
(22 minutes ago)
IFR
Wind Visibility
280° at 3 knots 3,203 meters
Clouds
  • Few at 2,700' AGL
  • Broken at 3,400' AGL
Conditions
  • Haze
Temperature Dewpoint
0°C / 32°F -3°C / 27°F
Humidity Altimeter Pressure
80% 30.04" Hg 1017.32 hPa